Justice — WDG2184 — position and weather

sailwx.info

Track history (hours):
 
Tides and Currents Weather Stations Pressure Air Temp Water Temp Dewpoint Dewpoint Depression Visibility Wind Speed Wind Dir Waves Ship Positions

Justice

Owner: Boston Towing & Transportation, Boston, MA. More information available from US FCC via Universal Licensing System and Coast Guard Vessel Documentation Center.

Last reported at 2014-Dec-16 23:09 UTC. Time now 2014-Dec-19 10:51 UTC.
Position N 42°23' W 071°03'.

Length 30 m; draft 5.8 m.

Type: Tug. MMSI: 367513010.

Date/timePositionNaut miles runAvg speedWind from/ knotsBaromVisibWave heightAir tempDewpointWater temp
2014-Dec-16 23:09N 42°23' W 071°03'3 5.1
2014-Dec-16 22:32N 42°20' W 071°00'0 0.1
2014-Dec-16 15:30N 42°21' W 071°01'6 6.5
2014-Dec-16 14:33N 42°15' W 070°58'0 0.1
2014-Dec-16 13:25N 42°15' W 070°58'5 6.2
2014-Dec-16 12:33N 42°20' W 070°60'4 4.4
2014-Dec-16 11:33N 42°23' W 071°04'4 2.2
2014-Dec-16 09:32N 42°20' W 070°60'2 1.9
2014-Dec-16 08:33N 42°21' W 070°58'0 0.0
2014-Dec-16 07:33N 42°21' W 070°58'1 1.2
2014-Dec-16 06:33N 42°21' W 070°56'1 1.5
2014-Dec-16 05:33N 42°22' W 070°54'5 0.3
2014-Dec-15 09:19N 42°21' W 071°01'2 0.5
2014-Dec-15 04:33N 42°23' W 071°03'3 0.7
2014-Dec-14 23:19N 42°20' W 070°60'5 6.9
2014-Dec-14 22:33N 42°16' W 070°56'  
2014-Dec-08 13:28N 42°19' W 070°56'2 1.0
2014-Dec-08 11:18N 42°17' W 070°56'3 0.1
2014-Dec-07 13:19N 42°20' W 070°58'4 5.7
2014-Dec-07 12:33N 42°16' W 070°56'0 0.2
2014-Dec-07 11:15N 42°16' W 070°56'  
Track history (hours):
 
Tides and Currents Weather Stations Pressure Air Temp Water Temp Dewpoint Dewpoint Depression Visibility Wind Speed Wind Dir Waves Ship Positions

Justice

Owner: Boston Towing & Transportation, Boston, MA. More information available from US FCC via Universal Licensing System and Coast Guard Vessel Documentation Center.

Last reported at 2014-Dec-16 23:09 UTC. Time now 2014-Dec-19 10:51 UTC.
Position N 42°23' W 071°03'.

Length 30 m; draft 5.8 m.

Type: Tug. MMSI: 367513010.

Date/timePositionNaut miles runAvg speedWind from/ knotsBaromVisibWave heightAir tempDewpointWater temp
2014-Dec-16 23:09N 42°23' W 071°03'3 5.1
2014-Dec-16 22:32N 42°20' W 071°00'0 0.1
2014-Dec-16 15:30N 42°21' W 071°01'6 6.5
2014-Dec-16 14:33N 42°15' W 070°58'0 0.1
2014-Dec-16 13:25N 42°15' W 070°58'5 6.2
2014-Dec-16 12:33N 42°20' W 070°60'4 4.4
2014-Dec-16 11:33N 42°23' W 071°04'4 2.2
2014-Dec-16 09:32N 42°20' W 070°60'2 1.9
2014-Dec-16 08:33N 42°21' W 070°58'0 0.0
2014-Dec-16 07:33N 42°21' W 070°58'1 1.2
2014-Dec-16 06:33N 42°21' W 070°56'1 1.5
2014-Dec-16 05:33N 42°22' W 070°54'5 0.3
2014-Dec-15 09:19N 42°21' W 071°01'2 0.5
2014-Dec-15 04:33N 42°23' W 071°03'3 0.7
2014-Dec-14 23:19N 42°20' W 070°60'5 6.9
2014-Dec-14 22:33N 42°16' W 070°56'  
2014-Dec-08 13:28N 42°19' W 070°56'2 1.0
2014-Dec-08 11:18N 42°17' W 070°56'3 0.1
2014-Dec-07 13:19N 42°20' W 070°58'4 5.7
2014-Dec-07 12:33N 42°16' W 070°56'0 0.2
2014-Dec-07 11:15N 42°16' W 070°56'  

Dump ship's entire track history